Time;durP1;ratioP1;P1;durP2;ratioP2;P2;SDS_P1;SDS_P2;PMS_P1;PMS_P2;Temp;Humidity;BMP_temperature;BMP_pressure;BME280_temperature;BME280_humidity;BME280_pressure;Samples;Min_cycle;Max_cycle;Signal;HPM_P1;HPM_P2
2022/02/03 00:01:49;;;;;;;50.47;19.80;;;7.50;99.90;;;;;;5112643;28;20258;-59
2022/02/03 00:04:18;;;;;;;45.77;17.40;;;7.60;99.90;;;;;;5112101;28;20236;-59
2022/02/03 00:06:50;;;;;;;53.40;18.17;;;7.60;99.90;;;;;;5112212;28;20219;-61
2022/02/03 00:09:28;;;;;;;54.13;20.67;;;7.70;99.90;;;;;;5111822;28;20206;-59
2022/02/03 00:23:16;;;;;;;61.13;20.57;;;7.80;99.90;;;;;;5115734;28;20715;-59
2022/02/03 00:25:46;;;;;;;57.43;20.20;;;7.80;99.90;;;;;;5116164;27;20591;-62
2022/02/03 00:28:20;;;;;;;61.63;19.93;;;7.90;99.90;;;;;;5115868;28;20358;-59
2022/02/03 00:31:05;;;;;;;62.33;21.07;;;7.90;99.90;;;;;;5115608;28;20342;-59
2022/02/03 00:33:36;;;;;;;63.73;20.63;;;7.90;99.90;;;;;;5115137;28;20282;-60
2022/02/03 00:36:13;;;;;;;64.00;21.87;;;7.90;99.90;;;;;;5115557;28;20208;-59
2022/02/03 00:50:07;;;;;;;59.73;21.93;;;8.00;99.90;;;;;;5052266;28;20215;-63
2022/02/03 00:52:36;;;;;;;59.97;21.13;;;7.90;99.90;;;;;;5102574;28;20227;-61
2022/02/03 00:55:04;;;;;;;77.57;23.93;;;7.90;99.90;;;;;;5114992;28;20770;-60
2022/02/03 00:57:37;;;;;;;66.93;23.17;;;8.00;99.90;;;;;;5114737;27;20208;-60
2022/02/03 01:00:08;;;;;;;61.00;21.63;;;8.00;99.90;;;;;;5115169;28;20204;-61
2022/02/03 01:02:42;;;;;;;57.13;21.53;;;8.00;99.90;;;;;;5114341;28;20228;-60
2022/02/03 01:05:12;;;;;;;64.80;22.23;;;8.00;99.90;;;;;;5114862;28;20202;-60
2022/02/03 01:07:44;;;;;;;60.47;21.93;;;8.00;99.90;;;;;;5114798;28;20217;-59
2022/02/03 01:10:14;;;;;;;63.00;22.27;;;8.00;99.90;;;;;;5114737;28;20614;-60
2022/02/03 01:12:53;;;;;;;64.77;22.30;;;8.00;99.90;;;;;;5114495;28;20226;-59
2022/02/03 01:15:26;;;;;;;68.67;21.77;;;8.00;99.90;;;;;;5114815;27;20220;-60
2022/02/03 01:18:07;;;;;;;57.03;20.80;;;8.00;99.90;;;;;;5114979;28;20201;-60
2022/02/03 01:21:10;;;;;;;58.20;21.33;;;8.00;99.90;;;;;;5114714;28;20628;-61
2022/02/03 01:34:57;;;;;;;60.37;21.67;;;8.10;99.90;;;;;;5114533;28;20250;-60
2022/02/03 01:37:49;;;;;;;58.20;20.40;;;8.00;99.90;;;;;;5114434;28;20207;-59
2022/02/03 01:43:27;;;;;;;60.00;21.50;;;8.10;99.90;;;;;;5114862;28;20273;-59
2022/02/03 01:45:56;;;;;;;53.93;18.77;;;8.10;99.90;;;;;;5115783;28;20625;-58
2022/02/03 01:48:39;;;;;;;49.17;20.57;;;8.10;99.90;;;;;;5113784;28;20208;-60
2022/02/03 01:53:57;;;;;;;52.70;19.33;;;8.10;99.90;;;;;;5113724;28;20231;-60
2022/02/03 01:56:35;;;;;;;49.57;19.73;;;8.10;99.90;;;;;;5113652;28;20295;-59
2022/02/03 01:59:04;;;;;;;48.50;20.23;;;8.10;99.90;;;;;;5113860;27;20656;-61
2022/02/03 02:01:32;;;;;;;58.50;22.33;;;8.10;99.90;;;;;;5113532;27;20229;-59
2022/02/03 02:04:07;;;;;;;55.10;22.13;;;8.10;99.90;;;;;;5114408;28;20214;-60
2022/02/03 02:06:57;;;;;;;54.97;21.03;;;8.10;99.90;;;;;;5113953;28;20249;-59
2022/02/03 02:09:35;;;;;;;54.33;22.20;;;8.10;99.90;;;;;;5113494;27;20212;-58
2022/02/03 02:12:21;;;;;;;57.47;21.60;;;8.10;99.90;;;;;;5113683;28;20255;-60
2022/02/03 02:15:29;;;;;;;51.23;20.47;;;8.10;99.90;;;;;;5113286;28;20717;-59
2022/02/03 02:18:18;;;;;;;48.93;19.87;;;8.20;99.90;;;;;;5112987;28;20215;-59
2022/02/03 02:37:38;;;;;;;53.97;21.20;;;8.20;99.90;;;;;;5112624;28;20207;-60
2022/02/03 02:40:31;;;;;;;53.80;21.23;;;8.10;99.90;;;;;;5112624;28;20207;-57
2022/02/03 02:43:03;;;;;;;51.80;21.03;;;8.20;99.90;;;;;;5111860;28;20230;-59
2022/02/03 02:45:45;;;;;;;47.90;20.10;;;8.10;99.90;;;;;;5112743;28;20201;-59
2022/02/03 02:48:21;;;;;;;51.63;20.03;;;8.10;99.90;;;;;;5112338;28;20690;-59
2022/02/03 02:50:57;;;;;;;57.03;22.77;;;8.10;99.90;;;;;;5114186;28;20201;-60
2022/02/03 02:53:37;;;;;;;50.47;21.37;;;8.10;99.90;;;;;;5113431;28;20234;-58
2022/02/03 02:56:18;;;;;;;55.43;21.47;;;8.10;99.90;;;;;;5112084;28;20201;-60
2022/02/03 02:59:10;;;;;;;57.43;23.50;;;8.10;99.90;;;;;;5114779;28;20216;-60
2022/02/03 03:29:39;;;;;;;48.40;19.43;;;8.10;99.90;;;;;;5111973;28;20247;-59
2022/02/03 03:32:31;;;;;;;54.97;19.90;;;8.10;99.90;;;;;;5112248;28;20304;-60
2022/02/03 03:35:05;;;;;;;56.17;20.87;;;8.00;99.90;;;;;;5111649;28;20320;-60
2022/02/03 03:37:40;;;;;;;55.27;20.60;;;8.00;99.90;;;;;;5112021;28;20251;-60
2022/02/03 03:40:09;;;;;;;52.27;19.33;;;8.00;99.90;;;;;;5111894;28;20258;-60
2022/02/03 03:42:38;;;;;;;50.37;19.13;;;8.00;99.90;;;;;;5111919;28;20229;-59
2022/02/03 03:45:08;;;;;;;56.37;19.83;;;8.00;99.90;;;;;;5111440;28;20716;-60
2022/02/03 03:47:38;;;;;;;55.57;20.97;;;8.00;99.90;;;;;;5111927;28;20220;-60
2022/02/03 03:50:11;;;;;;;57.50;21.20;;;8.00;99.90;;;;;;5111891;28;20208;-60
2022/02/03 03:52:47;;;;;;;54.43;21.13;;;8.00;99.90;;;;;;5111976;28;20321;-59
2022/02/03 03:55:24;;;;;;;60.53;21.83;;;8.00;99.90;;;;;;5114775;28;20230;-60
2022/02/03 03:58:07;;;;;;;58.13;24.07;;;8.00;99.90;;;;;;5115672;28;20290;-60
2022/02/03 04:01:01;;;;;;;62.73;22.97;;;8.00;99.90;;;;;;5115955;28;20209;-60
2022/02/03 04:29:54;;;;;;;60.13;23.97;;;7.90;99.90;;;;;;5115018;28;20240;-60
2022/02/03 04:32:48;;;;;;;59.07;24.03;;;7.90;99.90;;;;;;5114865;28;20737;-60
2022/02/03 04:38:23;;;;;;;49.13;21.67;;;7.80;99.90;;;;;;5115506;28;20203;-59
2022/02/03 04:41:24;;;;;;;37.73;15.53;;;7.80;99.90;;;;;;5115070;28;20208;-59
2022/02/03 04:56:45;;;;;;;37.17;17.30;;;7.70;99.90;;;;;;5114215;28;20304;-60
2022/02/03 04:59:52;;;;;;;37.57;17.60;;;7.80;99.90;;;;;;5114918;28;20224;-60
2022/02/03 05:02:36;;;;;;;37.43;17.07;;;7.80;99.90;;;;;;5114222;28;20670;-60
2022/02/03 05:05:16;;;;;;;35.20;16.33;;;7.70;99.90;;;;;;5114818;28;20295;-59
2022/02/03 05:08:24;;;;;;;31.60;16.10;;;7.70;99.90;;;;;;5114619;28;20798;-59
2022/02/03 05:11:22;;;;;;;33.10;16.13;;;7.70;99.90;;;;;;5114413;28;20204;-62
2022/02/03 05:17:17;;;;;;;30.00;13.53;;;7.60;99.90;;;;;;5079844;28;20621;-60
2022/02/03 05:26:27;;;;;;;26.60;12.37;;;7.50;99.90;;;;;;5050570;28;20221;-57
2022/02/03 05:33:13;;;;;;;23.50;11.07;;;7.50;99.90;;;;;;5113911;28;20250;-58
2022/02/03 05:42:21;;;;;;;25.67;11.90;;;7.40;99.90;;;;;;5114019;28;20244;-58
2022/02/03 05:45:26;;;;;;;22.90;11.53;;;7.40;99.90;;;;;;5113101;28;20210;-59
2022/02/03 05:51:02;;;;;;;22.37;11.97;;;7.40;99.90;;;;;;5089952;28;20200;-59
2022/02/03 06:04:57;;;;;;;16.93;10.57;;;7.40;99.90;;;;;;5099743;28;20261;-58
2022/02/03 06:07:46;;;;;;;20.07;10.33;;;7.40;99.90;;;;;;5113930;28;20199;-59
2022/02/03 06:13:04;;;;;;;20.80;9.50;;;7.40;99.90;;;;;;5118220;28;20299;-60
2022/02/03 06:15:39;;;;;;;14.70;8.80;;;7.40;99.90;;;;;;5113840;28;20227;-60
2022/02/03 06:21:24;;;;;;;14.33;9.17;;;7.30;99.90;;;;;;5115971;28;20252;-60
2022/02/03 06:24:01;;;;;;;16.67;9.43;;;7.30;99.90;;;;;;5120255;28;20204;-60
2022/02/03 06:29:17;;;;;;;19.40;8.37;;;7.30;99.90;;;;;;5112690;28;20202;-59
2022/02/03 06:31:47;;;;;;;18.33;7.93;;;7.20;99.90;;;;;;5112263;28;20705;-62
2022/02/03 06:34:14;;;;;;;16.33;8.80;;;7.30;99.90;;;;;;5091261;28;20265;-61
2022/02/03 06:36:42;;;;;;;14.67;8.70;;;7.30;99.90;;;;;;5097805;28;20208;-60
2022/02/03 06:39:14;;;;;;;15.70;8.27;;;7.20;99.90;;;;;;5112523;28;20218;-61
2022/02/03 06:41:41;;;;;;;17.77;8.70;;;7.20;99.90;;;;;;5113127;28;20220;-61
2022/02/03 06:44:08;;;;;;;15.67;8.20;;;7.20;99.90;;;;;;5112774;28;20207;-62
2022/02/03 06:46:37;;;;;;;14.67;8.40;;;7.20;99.90;;;;;;5112434;28;20692;-60
2022/02/03 06:49:15;;;;;;;13.23;7.70;;;7.20;99.90;;;;;;5112436;28;20261;-61
2022/02/03 06:51:50;;;;;;;13.13;8.07;;;7.20;99.90;;;;;;5112045;28;20766;-61
2022/02/03 06:54:24;;;;;;;13.90;8.47;;;7.20;99.90;;;;;;5112636;28;20728;-62
2022/02/03 06:56:55;;;;;;;14.27;8.27;;;7.30;99.90;;;;;;5111623;28;20211;-62
2022/02/03 06:59:29;;;;;;;14.37;9.40;;;7.30;99.90;;;;;;5112141;28;20207;-63
2022/02/03 07:01:56;;;;;;;15.43;9.20;;;7.30;99.90;;;;;;5111892;28;20809;-64
2022/02/03 07:04:27;;;;;;;17.20;9.20;;;7.30;99.90;;;;;;5111823;28;20218;-64
2022/02/03 07:06:54;;;;;;;16.80;9.13;;;7.20;99.90;;;;;;5111242;28;20647;-65
2022/02/03 07:09:21;;;;;;;17.97;9.37;;;7.30;99.90;;;;;;5111643;28;20211;-65
2022/02/03 07:11:48;;;;;;;18.00;9.53;;;7.30;99.90;;;;;;5112068;28;20227;-61
2022/02/03 07:14:14;;;;;;;17.07;9.33;;;7.30;99.90;;;;;;5111673;28;20261;-61
2022/02/03 07:16:48;;;;;;;18.03;9.63;;;7.30;99.90;;;;;;5111577;28;20232;-61
2022/02/03 07:19:16;;;;;;;15.17;9.77;;;7.30;99.90;;;;;;5111577;28;20614;-60
2022/02/03 07:21:46;;;;;;;14.07;9.03;;;7.30;99.90;;;;;;5111371;28;20793;-62
2022/02/03 07:24:13;;;;;;;14.03;8.23;;;7.30;99.90;;;;;;5112065;28;20874;-61
2022/02/03 07:26:39;;;;;;;16.17;9.20;;;7.30;99.90;;;;;;5111956;28;20275;-62
2022/02/03 07:29:07;;;;;;;18.27;10.40;;;7.20;99.90;;;;;;5111686;28;20204;-63
2022/02/03 07:31:33;;;;;;;17.53;9.23;;;7.20;99.90;;;;;;5111396;28;20231;-62
2022/02/03 07:34:08;;;;;;;17.37;10.40;;;7.20;99.90;;;;;;5111770;28;20613;-63
2022/02/03 07:36:35;;;;;;;19.33;10.00;;;7.30;99.90;;;;;;5109445;28;20219;-63
2022/02/03 07:39:03;;;;;;;17.93;9.33;;;7.20;99.90;;;;;;5111522;28;20203;-64
2022/02/03 07:41:30;;;;;;;21.73;10.80;;;7.20;99.90;;;;;;5109810;28;20237;-62
2022/02/03 07:43:58;;;;;;;18.13;10.57;;;7.10;99.90;;;;;;5110331;28;20207;-60
2022/02/03 07:46:24;;;;;;;15.93;9.30;;;7.20;99.90;;;;;;5113427;28;20200;-65
2022/02/03 07:48:52;;;;;;;20.27;10.37;;;7.20;99.90;;;;;;5111083;28;20199;-62
2022/02/03 07:51:19;;;;;;;20.37;10.50;;;7.20;99.90;;;;;;5111743;28;20610;-62
2022/02/03 07:53:46;;;;;;;24.30;11.73;;;7.10;99.90;;;;;;5111290;28;20214;-62
2022/02/03 07:56:14;;;;;;;20.53;10.90;;;7.10;99.90;;;;;;5111186;28;20705;-63
2022/02/03 07:58:41;;;;;;;22.00;11.53;;;7.10;99.90;;;;;;5111508;28;20211;-64
2022/02/03 08:01:07;;;;;;;21.77;11.33;;;7.10;99.90;;;;;;5111544;28;20211;-63
2022/02/03 08:03:38;;;;;;;24.27;11.80;;;7.10;99.90;;;;;;5110934;28;20230;-63
2022/02/03 08:06:07;;;;;;;23.93;11.90;;;7.10;99.90;;;;;;5110886;28;20718;-63
2022/02/03 08:08:39;;;;;;;19.87;11.37;;;7.10;99.90;;;;;;5111807;28;20299;-62
2022/02/03 08:11:09;;;;;;;20.87;11.83;;;7.10;99.90;;;;;;5111135;28;20291;-63
2022/02/03 08:13:46;;;;;;;24.77;12.33;;;7.10;99.90;;;;;;5111621;28;20228;-65
2022/02/03 08:16:18;;;;;;;20.83;11.60;;;7.10;99.90;;;;;;5110887;28;20207;-65
2022/02/03 08:18:49;;;;;;;21.47;11.83;;;7.10;99.90;;;;;;5111537;28;20203;-61
2022/02/03 08:21:18;;;;;;;22.73;11.70;;;7.20;99.90;;;;;;5111901;28;20281;-62
2022/02/03 08:24:14;;;;;;;21.80;10.30;;;7.10;99.90;;;;;;5111862;28;20195;-62
2022/02/03 08:26:50;;;;;;;18.10;11.00;;;7.10;99.90;;;;;;5110938;28;20204;-63
2022/02/03 08:32:07;;;;;;;20.73;11.07;;;7.10;99.90;;;;;;5097625;28;20255;-64
2022/02/03 08:34:42;;;;;;;18.67;10.20;;;7.10;99.90;;;;;;5110288;28;20199;-64
2022/02/03 08:37:09;;;;;;;20.57;10.73;;;7.00;99.90;;;;;;5110381;28;20237;-66
2022/02/03 08:39:49;;;;;;;19.77;11.00;;;7.00;99.90;;;;;;5111269;28;20214;-63
2022/02/03 08:42:15;;;;;;;20.40;10.07;;;7.00;99.90;;;;;;5115219;28;20223;-64
2022/02/03 08:44:43;;;;;;;21.77;9.83;;;7.00;99.90;;;;;;5114756;28;20200;-60
2022/02/03 08:47:10;;;;;;;23.07;10.87;;;7.10;99.90;;;;;;5114724;28;20204;-66
2022/02/03 08:49:41;;;;;;;19.17;9.93;;;7.10;99.90;;;;;;5114624;27;20650;-63
2022/02/03 08:52:16;;;;;;;20.83;10.83;;;7.10;99.90;;;;;;5115682;28;20322;-63
2022/02/03 08:54:50;;;;;;;23.10;10.47;;;7.00;99.90;;;;;;5115205;28;20207;-63
2022/02/03 08:57:29;;;;;;;20.80;11.90;;;7.10;99.90;;;;;;5115235;28;20547;-63
2022/02/03 09:00:34;;;;;;;23.27;11.53;;;7.10;99.90;;;;;;5114428;27;20310;-64
2022/02/03 09:36:41;;;;;;;19.67;10.73;;;7.50;99.90;;;;;;5018470;28;20262;-65
2022/02/03 09:39:16;;;;;;;18.70;10.37;;;7.50;99.90;;;;;;5106285;28;20215;-63
2022/02/03 09:50:42;;;;;;;20.03;10.97;;;7.40;99.90;;;;;;5121178;28;20221;-61
2022/02/03 09:53:28;;;;;;;20.60;11.23;;;7.40;99.90;;;;;;5121856;28;20287;-59
2022/02/03 09:56:07;;;;;;;22.97;11.80;;;7.30;99.90;;;;;;5112767;28;20733;-61
2022/02/03 09:58:41;;;;;;;21.90;12.20;;;7.30;99.90;;;;;;5113537;28;20243;-61
2022/02/03 10:01:13;;;;;;;21.17;11.47;;;7.30;99.90;;;;;;5113868;28;20212;-61
2022/02/03 10:03:48;;;;;;;24.03;11.33;;;7.30;99.90;;;;;;5112979;28;20670;-62
2022/02/03 10:06:20;;;;;;;19.83;11.43;;;7.30;99.90;;;;;;5113006;28;20204;-58
2022/02/03 10:08:49;;;;;;;19.37;11.40;;;7.30;99.90;;;;;;5113114;28;20243;-59
2022/02/03 10:11:17;;;;;;;17.37;10.50;;;7.20;99.90;;;;;;5113505;28;20291;-61
2022/02/03 10:13:46;;;;;;;20.90;9.70;;;7.10;99.90;;;;;;5113302;28;20203;-61
2022/02/03 10:16:15;;;;;;;15.77;9.80;;;7.10;99.90;;;;;;5113124;28;20597;-59
2022/02/03 10:18:42;;;;;;;18.83;10.67;;;7.10;99.90;;;;;;5113500;28;20248;-60
2022/02/03 10:21:13;;;;;;;18.10;9.80;;;7.00;99.90;;;;;;5112602;28;20209;-60
2022/02/03 10:23:56;;;;;;;14.97;9.77;;;7.00;99.90;;;;;;5113268;28;20558;-61
2022/02/03 10:26:31;;;;;;;17.00;10.63;;;7.00;99.90;;;;;;5112667;28;20199;-61
2022/02/03 10:28:59;;;;;;;18.73;10.77;;;7.00;99.90;;;;;;5114237;28;20289;-62
2022/02/03 10:31:27;;;;;;;20.17;10.57;;;7.10;99.90;;;;;;5116180;27;20208;-63
2022/02/03 10:34:02;;;;;;;16.63;11.00;;;7.10;99.90;;;;;;5113738;28;20268;-64
2022/02/03 10:36:49;;;;;;;16.60;10.57;;;7.10;99.90;;;;;;5113156;28;20207;-63
2022/02/03 10:42:25;;;;;;;17.07;9.87;;;7.20;99.90;;;;;;5113400;28;20340;-61
2022/02/03 10:45:12;;;;;;;15.77;9.83;;;7.30;99.90;;;;;;5113893;28;20281;-62
2022/02/03 10:50:49;;;;;;;14.33;9.50;;;7.30;99.90;;;;;;5113450;28;20195;-62
2022/02/03 10:53:42;;;;;;;19.10;8.33;;;7.30;99.90;;;;;;5112808;28;20601;-61
2022/02/03 10:56:52;;;;;;;16.50;9.00;;;7.30;99.90;;;;;;5112437;28;20220;-60
2022/02/03 11:02:23;;;;;;;15.00;9.30;;;7.30;99.90;;;;;;5112564;28;20226;-63
2022/02/03 11:05:11;;;;;;;15.63;9.10;;;7.30;99.90;;;;;;5111679;28;20216;-61
2022/02/03 11:07:46;;;;;;;15.40;9.03;;;7.30;99.90;;;;;;5112350;28;20211;-63
2022/02/03 11:10:26;;;;;;;13.47;8.10;;;7.30;99.90;;;;;;5112800;28;20192;-62
2022/02/03 11:12:55;;;;;;;15.53;8.47;;;7.30;99.90;;;;;;5112432;28;20232;-62
2022/02/03 11:15:24;;;;;;;15.43;9.43;;;7.40;99.90;;;;;;5111591;28;20234;-64
2022/02/03 11:17:52;;;;;;;13.90;8.83;;;7.40;99.90;;;;;;5111969;28;20199;-61
2022/02/03 11:20:21;;;;;;;14.23;8.73;;;7.40;99.90;;;;;;5111921;28;20208;-63
2022/02/03 11:22:54;;;;;;;13.50;8.43;;;7.30;99.90;;;;;;5112077;28;20316;-65
2022/02/03 11:25:34;;;;;;;12.40;8.33;;;7.20;99.90;;;;;;5111659;28;20696;-59
2022/02/03 11:28:20;;;;;;;12.77;7.83;;;7.30;99.90;;;;;;5111508;28;20200;-60
2022/02/03 11:34:14;;;;;;;13.37;7.53;;;7.30;99.90;;;;;;5111607;28;20305;-65
2022/02/03 11:37:08;;;;;;;12.40;7.03;;;7.30;99.90;;;;;;5111461;28;20316;-65
2022/02/03 11:40:11;;;;;;;12.93;7.47;;;7.20;99.90;;;;;;5111786;28;20261;-66
2022/02/03 11:45:47;;;;;;;8.00;6.27;;;7.20;99.90;;;;;;5076723;28;20205;-66
2022/02/03 11:54:05;;;;;;;8.00;5.67;;;7.30;99.90;;;;;;5111465;28;20629;-67
2022/02/03 12:02:52;;;;;;;6.87;5.60;;;7.20;99.90;;;;;;5112058;28;20614;-61
2022/02/03 12:06:07;;;;;;;9.17;5.37;;;7.10;99.90;;;;;;5111833;28;20292;-61
2022/02/03 12:14:41;;;;;;;9.77;6.10;;;6.90;99.90;;;;;;5111557;28;20217;-62
2022/02/03 12:17:35;;;;;;;8.73;5.47;;;6.80;99.90;;;;;;5115008;28;20239;-64
2022/02/03 12:20:13;;;;;;;7.43;5.57;;;6.80;99.90;;;;;;5115189;28;20210;-62
2022/02/03 12:23:00;;;;;;;8.93;6.13;;;6.70;99.90;;;;;;5115527;28;20219;-60
2022/02/03 12:25:42;;;;;;;8.67;5.43;;;6.80;99.90;;;;;;5114866;28;20207;-59
2022/02/03 12:28:22;;;;;;;6.57;5.43;;;6.80;99.90;;;;;;5115068;28;20584;-62
2022/02/03 12:31:09;;;;;;;7.83;5.77;;;6.80;99.90;;;;;;5115318;28;20291;-63
2022/02/03 12:39:10;;;;;;;8.17;5.50;;;6.70;99.90;;;;;;5115299;28;20207;-63
2022/02/03 12:41:40;;;;;;;8.40;5.27;;;6.60;99.90;;;;;;5115504;28;20228;-62
2022/02/03 12:44:15;;;;;;;7.60;5.63;;;6.60;99.90;;;;;;5116558;28;20669;-55
2022/02/03 12:46:42;;;;;;;8.03;5.77;;;6.60;99.90;;;;;;5116464;28;20665;-65
2022/02/03 12:49:09;;;;;;;8.30;6.23;;;6.60;99.90;;;;;;5115045;28;20215;-63
2022/02/03 12:51:37;;;;;;;9.63;5.17;;;6.60;99.90;;;;;;5115287;28;20228;-65
2022/02/03 12:54:11;;;;;;;8.63;5.87;;;6.60;99.90;;;;;;5115306;28;20302;-65
2022/02/03 12:56:38;;;;;;;7.97;6.00;;;6.60;99.90;;;;;;5114685;27;20219;-65
2022/02/03 12:59:08;;;;;;;10.67;5.73;;;6.70;99.90;;;;;;5114584;28;20692;-61
2022/02/03 13:01:38;;;;;;;7.17;5.60;;;6.60;99.90;;;;;;5114422;28;20234;-59
2022/02/03 13:04:11;;;;;;;8.90;5.83;;;6.60;99.90;;;;;;5115967;28;20226;-62
2022/02/03 13:06:44;;;;;;;7.27;5.73;;;6.60;99.90;;;;;;5117309;28;20204;-61
2022/02/03 13:09:12;;;;;;;6.87;5.50;;;6.60;99.90;;;;;;5115237;28;20256;-60
2022/02/03 13:11:42;;;;;;;8.43;6.00;;;6.50;99.90;;;;;;5114389;28;20246;-60
2022/02/03 13:14:22;;;;;;;8.63;6.00;;;6.60;99.90;;;;;;5115085;28;20192;-60
2022/02/03 13:16:54;;;;;;;7.50;5.53;;;6.50;99.90;;;;;;5118461;28;20288;-61
2022/02/03 13:19:32;;;;;;;10.63;5.87;;;6.60;99.90;;;;;;5118287;28;20207;-60
2022/02/03 13:22:14;;;;;;;9.27;6.03;;;6.50;99.90;;;;;;5114144;28;20223;-58
2022/02/03 13:27:30;;;;;;;10.07;6.20;;;6.50;99.90;;;;;;5110433;28;20569;-60
2022/02/03 13:30:03;;;;;;;8.67;5.80;;;6.60;99.90;;;;;;5114428;28;20233;-59
2022/02/03 13:32:36;;;;;;;9.53;6.13;;;6.50;99.90;;;;;;5113526;28;20234;-62
2022/02/03 13:35:19;;;;;;;8.87;6.13;;;6.50;99.90;;;;;;5113791;28;20254;-62
2022/02/03 13:37:52;;;;;;;10.17;5.97;;;6.60;99.90;;;;;;5113525;28;20288;-62
2022/02/03 13:40:20;;;;;;;8.53;6.37;;;6.60;99.90;;;;;;5113704;28;20208;-62
2022/02/03 13:42:49;;;;;;;8.13;6.13;;;6.60;99.90;;;;;;5113704;28;20273;-63
2022/02/03 13:45:18;;;;;;;7.83;6.07;;;6.60;99.90;;;;;;5113029;28;20235;-61
2022/02/03 13:47:46;;;;;;;9.93;5.80;;;6.50;99.90;;;;;;5113418;28;20246;-60
2022/02/03 13:50:22;;;;;;;8.27;5.17;;;6.60;99.90;;;;;;5113521;28;20235;-61
2022/02/03 13:52:53;;;;;;;8.87;5.87;;;6.70;99.90;;;;;;5113643;28;20268;-64
2022/02/03 14:15:09;;;;;;;9.67;5.63;;;6.70;99.90;;;;;;5086568;28;20596;-61
2022/02/03 14:26:48;;;;;;;6.67;5.30;;;6.80;99.90;;;;;;5096661;27;20221;-62
2022/02/03 14:28:56;;;;;;;9.97;5.87;;;6.60;99.90;;;;;;5113100;28;20202;-61
2022/02/03 14:31:23;;;;;;;7.40;5.47;;;6.60;99.90;;;;;;5112739;28;20203;-62
2022/02/03 14:33:49;;;;;;;7.40;5.23;;;6.60;99.90;;;;;;5113425;28;20591;-62
2022/02/03 14:36:19;;;;;;;8.47;5.73;;;6.50;99.90;;;;;;5112915;28;20204;-61
2022/02/03 14:38:53;;;;;;;6.93;5.40;;;6.50;99.90;;;;;;5112471;28;20203;-61
2022/02/03 14:41:25;;;;;;;8.83;5.90;;;6.60;99.90;;;;;;5112238;28;20207;-62
2022/02/03 14:43:52;;;;;;;6.77;5.23;;;6.60;99.90;;;;;;5112952;28;20204;-60
2022/02/03 14:46:20;;;;;;;10.07;5.77;;;6.60;99.90;;;;;;5112082;28;20253;-61
2022/02/03 14:48:48;;;;;;;7.87;5.43;;;6.60;99.90;;;;;;5112845;28;20203;-63
2022/02/03 14:51:19;;;;;;;9.03;5.07;;;6.60;99.90;;;;;;5112394;28;20261;-63
2022/02/03 14:53:56;;;;;;;6.00;4.87;;;6.50;99.90;;;;;;5112503;28;20298;-62
2022/02/03 14:59:08;;;;;;;8.73;5.17;;;6.50;99.90;;;;;;5112155;28;20214;-62
2022/02/03 15:01:39;;;;;;;6.33;5.53;;;6.60;99.90;;;;;;5111636;28;20234;-61
2022/02/03 15:04:09;;;;;;;6.30;4.87;;;6.40;99.90;;;;;;5111697;28;20256;-61
2022/02/03 15:06:39;;;;;;;6.80;5.77;;;6.40;99.90;;;;;;5111547;28;20212;-63
2022/02/03 15:09:32;;;;;;;10.67;7.13;;;6.40;99.90;;;;;;5112337;28;20199;-62
2022/02/03 15:12:05;;;;;;;8.30;5.47;;;6.30;99.90;;;;;;5112791;28;20219;-60
2022/02/03 15:14:32;;;;;;;9.17;5.60;;;6.30;99.90;;;;;;5111974;28;20240;-62
2022/02/03 15:17:00;;;;;;;10.50;5.87;;;6.30;99.90;;;;;;5111736;28;20246;-60
2022/02/03 15:19:27;;;;;;;9.13;6.17;;;6.30;99.90;;;;;;5112332;28;20203;-61
2022/02/03 15:21:53;;;;;;;8.53;6.27;;;6.40;99.90;;;;;;5112979;28;20740;-61
2022/02/03 15:24:20;;;;;;;9.57;6.00;;;6.40;99.90;;;;;;5112883;28;20199;-61
2022/02/03 15:26:47;;;;;;;8.57;5.97;;;6.40;99.90;;;;;;5111520;28;20583;-62
2022/02/03 15:29:14;;;;;;;11.60;6.93;;;6.40;99.90;;;;;;5112191;28;20203;-61
2022/02/03 15:31:42;;;;;;;6.37;5.70;;;6.30;99.90;;;;;;5111795;28;20233;-64
2022/02/03 15:34:14;;;;;;;10.30;5.50;;;6.30;99.90;;;;;;5112460;28;20210;-60
2022/02/03 15:36:47;;;;;;;10.33;6.13;;;6.30;99.90;;;;;;5111531;28;20206;-59
2022/02/03 15:39:19;;;;;;;10.37;5.97;;;6.20;99.90;;;;;;5112300;28;20587;-62
2022/02/03 15:41:48;;;;;;;9.17;6.53;;;6.20;99.90;;;;;;5112045;28;20827;-61
2022/02/03 15:44:15;;;;;;;7.67;5.87;;;6.20;99.90;;;;;;5112360;28;20213;-61
2022/02/03 15:46:48;;;;;;;8.43;5.80;;;6.30;99.90;;;;;;5111725;28;20230;-61
2022/02/03 15:49:33;;;;;;;11.23;6.43;;;6.30;99.90;;;;;;5112786;28;20578;-63
2022/02/03 15:58:19;;;;;;;11.60;6.40;;;6.30;99.90;;;;;;5115656;28;20291;-65
2022/02/03 16:03:26;;;;;;;9.67;6.60;;;6.20;99.90;;;;;;5115875;28;20225;-64
2022/02/03 16:16:55;;;;;;;11.30;6.33;;;6.20;99.90;;;;;;5104115;28;20597;-63
2022/02/03 16:19:33;;;;;;;9.20;5.90;;;6.20;99.90;;;;;;5115586;28;20270;-63
2022/02/03 16:22:07;;;;;;;9.10;5.53;;;6.20;99.90;;;;;;5115856;28;20253;-63
2022/02/03 16:24:48;;;;;;;9.27;6.00;;;6.20;99.90;;;;;;5115709;28;20241;-62
2022/02/03 16:52:33;;;;;;;11.13;6.83;;;5.90;99.90;;;;;;5115291;28;20294;-63
2022/02/03 16:55:06;;;;;;;12.23;6.70;;;5.90;99.90;;;;;;5114369;28;20677;-61
2022/02/03 16:57:32;;;;;;;10.47;7.30;;;6.00;99.90;;;;;;5114922;28;20231;-63
2022/02/03 17:00:04;;;;;;;12.47;7.27;;;5.90;99.90;;;;;;5114850;28;20211;-64
2022/02/03 17:02:31;;;;;;;13.30;7.80;;;6.00;99.90;;;;;;5113986;28;20226;-67
2022/02/03 17:04:58;;;;;;;10.93;7.80;;;6.00;99.90;;;;;;5114526;28;20714;-61
2022/02/03 17:07:25;;;;;;;13.30;7.47;;;6.00;99.90;;;;;;5114111;28;20206;-61
2022/02/03 17:09:53;;;;;;;12.67;7.27;;;6.00;99.90;;;;;;5114945;28;20207;-63
2022/02/03 17:12:21;;;;;;;12.07;7.97;;;6.00;99.90;;;;;;5114611;28;20231;-63
2022/02/03 17:14:48;;;;;;;11.97;8.33;;;6.00;99.90;;;;;;5114415;28;20289;-62
2022/02/03 17:17:15;;;;;;;11.00;7.87;;;5.90;99.90;;;;;;5112300;28;20240;-62
2022/02/03 17:19:42;;;;;;;15.07;7.80;;;5.90;99.90;;;;;;5114461;28;20215;-62
2022/02/03 17:22:11;;;;;;;11.50;8.27;;;5.80;99.90;;;;;;5114292;28;20235;-64
2022/02/03 17:24:43;;;;;;;14.70;8.37;;;5.80;99.90;;;;;;5114091;28;20199;-63
2022/02/03 17:27:18;;;;;;;16.20;9.23;;;5.80;99.90;;;;;;5113891;28;20199;-64
2022/02/03 17:29:55;;;;;;;12.17;7.47;;;5.80;99.90;;;;;;5114327;28;20211;-64
2022/02/03 17:44:56;;;;;;;16.27;8.47;;;5.80;99.90;;;;;;5114301;28;20243;-64
2022/02/03 18:03:34;;;;;;;13.97;10.10;;;5.90;99.90;;;;;;5071177;28;20342;-62
2022/02/03 18:06:37;;;;;;;15.37;9.87;;;5.90;99.90;;;;;;5068210;28;20197;-62
2022/02/03 18:09:08;;;;;;;16.53;9.33;;;5.90;99.90;;;;;;5068388;28;20204;-63
2022/02/03 18:11:53;;;;;;;16.00;9.67;;;5.90;99.90;;;;;;5068634;28;20251;-63
2022/02/03 18:17:27;;;;;;;18.83;9.43;;;5.80;99.90;;;;;;5068579;28;20316;-64
2022/02/03 18:25:48;;;;;;;17.97;9.53;;;5.80;99.90;;;;;;5069699;28;20209;-63
2022/02/03 18:26:32;;;;;;;13.53;9.60;;;5.80;99.90;;;;;;5068997;28;20199;-62
2022/02/03 18:34:40;;;;;;;15.30;9.73;;;5.90;99.90;;;;;;5068061;28;20209;-63
2022/02/03 18:37:17;;;;;;;17.33;11.27;;;5.90;99.90;;;;;;5067949;28;20998;-63
2022/02/03 18:50:40;;;;;;;18.93;11.67;;;5.80;99.90;;;;;;5067549;28;20214;-64
2022/02/03 18:53:16;;;;;;;19.83;10.97;;;5.80;99.90;;;;;;5067835;28;20231;-64
2022/02/03 18:55:56;;;;;;;18.67;12.17;;;5.80;99.90;;;;;;5066753;28;20228;-65
2022/02/03 18:58:40;;;;;;;21.97;12.40;;;5.70;99.90;;;;;;5068029;28;20609;-65
2022/02/03 19:01:32;;;;;;;19.87;12.43;;;5.70;99.90;;;;;;5067815;28;20205;-66
2022/02/03 19:09:51;;;;;;;22.63;13.27;;;5.60;99.90;;;;;;5054368;28;20571;-63
2022/02/03 19:15:27;;;;;;;23.90;14.63;;;5.60;99.90;;;;;;5053927;28;20768;-63
2022/02/03 20:04:57;;;;;;;27.33;14.37;;;5.90;99.90;;;;;;5013742;28;20245;-63
2022/02/03 20:07:31;;;;;;;21.43;14.27;;;6.00;99.90;;;;;;5049898;28;20206;-62
2022/02/03 20:10:09;;;;;;;24.70;14.57;;;5.90;99.90;;;;;;5054128;28;20295;-63
2022/02/03 20:12:36;;;;;;;26.80;13.47;;;5.90;99.90;;;;;;5054080;28;20225;-62
2022/02/03 20:15:03;;;;;;;21.13;13.93;;;5.90;99.90;;;;;;5054781;28;20248;-63
2022/02/03 20:17:30;;;;;;;25.37;14.50;;;5.90;99.90;;;;;;5062915;28;20237;-63
2022/02/03 20:19:57;;;;;;;22.03;13.93;;;5.90;99.90;;;;;;5062259;28;20204;-64
2022/02/03 20:22:28;;;;;;;22.70;14.53;;;5.80;99.90;;;;;;5053144;28;20779;-63
2022/02/03 20:24:55;;;;;;;24.20;14.33;;;5.80;99.90;;;;;;5052486;28;20224;-63
2022/02/03 20:27:23;;;;;;;25.07;14.97;;;5.80;99.90;;;;;;5052582;28;20255;-64
2022/02/03 20:29:50;;;;;;;26.77;15.33;;;5.90;99.90;;;;;;5052932;28;20206;-61
2022/02/03 20:32:18;;;;;;;24.33;14.57;;;5.80;99.90;;;;;;5052835;28;20232;-62
2022/02/03 20:34:46;;;;;;;24.80;14.73;;;5.80;99.90;;;;;;5052783;28;20208;-62
2022/02/03 20:37:13;;;;;;;24.40;15.20;;;5.80;99.90;;;;;;5052299;28;20287;-62
2022/02/03 20:39:40;;;;;;;24.07;15.53;;;5.80;99.90;;;;;;5052704;28;20263;-62
2022/02/03 20:42:07;;;;;;;27.90;15.67;;;5.80;99.90;;;;;;5052169;28;20233;-63